Time;durP1;ratioP1;P1;durP2;ratioP2;P2;SDS_P1;SDS_P2;PMS_P1;PMS_P2;Temp;Humidity;BMP_temperature;BMP_pressure;BME280_temperature;BME280_humidity;BME280_pressure;Samples;Min_cycle;Max_cycle;Signal;HPM_P1;HPM_P2
2021/06/17 00:00:46;;;;;;;16.70;15.07;;;24.20;99.90;;;;;;5017280;28;20022;-67
2021/06/17 00:03:12;;;;;;;18.15;16.25;;;24.10;99.80;;;;;;5013199;28;20364;-68
2021/06/17 00:05:38;;;;;;;18.67;16.85;;;24.10;99.90;;;;;;5021075;28;20087;-67
2021/06/17 00:08:06;;;;;;;18.00;15.68;;;24.10;99.70;;;;;;5015704;28;20057;-67
2021/06/17 00:10:34;;;;;;;17.95;15.73;;;24.10;99.50;;;;;;5021313;28;20034;-68
2021/06/17 00:13:05;;;;;;;17.83;14.10;;;24.00;99.60;;;;;;5019915;28;20084;-68
2021/06/17 00:15:33;;;;;;;16.38;14.63;;;23.90;99.80;;;;;;5020311;28;20018;-68
2021/06/17 00:17:58;;;;;;;17.45;15.80;;;23.90;99.90;;;;;;5016748;28;20030;-68
2021/06/17 00:20:27;;;;;;;20.08;16.67;;;23.90;99.90;;;;;;5016904;28;20030;-68
2021/06/17 00:22:53;;;;;;;17.88;15.90;;;24.00;99.90;;;;;;5017823;28;20118;-67
2021/06/17 00:25:19;;;;;;;17.08;15.32;;;23.90;99.90;;;;;;5017009;28;20026;-68
2021/06/17 00:27:45;;;;;;;17.63;15.73;;;23.70;99.90;;;;;;5019532;28;20066;-67
2021/06/17 00:30:12;;;;;;;19.13;15.07;;;23.60;99.90;;;;;;5015955;28;20057;-69
2021/06/17 00:32:38;;;;;;;17.20;15.30;;;23.70;99.90;;;;;;5019476;28;20037;-67
2021/06/17 00:35:05;;;;;;;17.48;15.45;;;23.70;99.90;;;;;;5016139;28;20103;-68
2021/06/17 00:37:31;;;;;;;16.88;15.35;;;23.70;99.90;;;;;;5020112;28;20029;-67
2021/06/17 00:39:59;;;;;;;19.67;17.00;;;23.70;99.90;;;;;;5021892;28;20033;-67
2021/06/17 00:42:25;;;;;;;18.35;14.32;;;23.70;99.90;;;;;;5016041;28;20022;-67
2021/06/17 00:44:51;;;;;;;20.98;13.80;;;23.70;99.90;;;;;;5018415;28;20458;-67
2021/06/17 00:47:16;;;;;;;21.40;16.05;;;23.60;99.90;;;;;;5016356;28;20072;-67
2021/06/17 00:49:42;;;;;;;19.02;16.02;;;23.70;99.90;;;;;;5015049;28;20025;-68
2021/06/17 00:52:08;;;;;;;17.58;13.93;;;23.60;99.90;;;;;;5018642;28;20179;-67
2021/06/17 00:54:34;;;;;;;18.30;15.00;;;23.60;99.90;;;;;;5020066;28;20029;-67
2021/06/17 00:57:06;;;;;;;18.25;14.43;;;23.50;99.90;;;;;;5017998;28;20041;-67
2021/06/17 00:59:33;;;;;;;17.45;13.57;;;23.50;99.90;;;;;;5020463;28;20114;-68
2021/06/17 01:01:59;;;;;;;20.83;15.93;;;23.50;99.90;;;;;;5027135;28;20528;-68
2021/06/17 01:04:27;;;;;;;19.20;15.73;;;23.50;99.90;;;;;;5023731;28;20105;-68
2021/06/17 01:06:54;;;;;;;17.40;15.55;;;23.50;99.90;;;;;;5024019;28;20026;-67
2021/06/17 01:09:48;;;;;;;16.77;15.07;;;23.50;99.90;;;;;;5021767;28;20025;-68
2021/06/17 01:12:38;;;;;;;19.08;15.73;;;23.50;99.90;;;;;;5027746;28;20088;-70
2021/06/17 01:15:05;;;;;;;20.05;15.45;;;23.50;99.90;;;;;;5019939;28;20401;-68
2021/06/17 01:17:39;;;;;;;18.38;15.32;;;23.40;99.90;;;;;;5019574;28;20064;-67
2021/06/17 01:20:14;;;;;;;17.58;15.40;;;23.40;99.90;;;;;;5022230;28;20149;-67
2021/06/17 01:22:46;;;;;;;19.70;15.77;;;23.40;99.90;;;;;;5019952;28;20493;-70
2021/06/17 01:25:41;;;;;;;15.00;13.35;;;23.40;99.90;;;;;;5020295;28;20392;-69
2021/06/17 01:28:17;;;;;;;21.05;14.70;;;23.40;99.90;;;;;;5021241;28;20033;-68
2021/06/17 01:30:52;;;;;;;16.55;14.82;;;23.30;99.90;;;;;;5016863;28;20100;-68
2021/06/17 01:33:19;;;;;;;18.20;14.98;;;23.30;99.90;;;;;;5014802;28;20065;-68
2021/06/17 01:35:47;;;;;;;15.35;13.95;;;23.30;99.90;;;;;;5018694;28;20026;-67
2021/06/17 01:38:18;;;;;;;18.63;14.95;;;23.30;99.90;;;;;;5014853;28;20038;-68
2021/06/17 01:40:45;;;;;;;18.48;15.07;;;23.30;99.90;;;;;;5021746;28;20110;-68
2021/06/17 01:43:13;;;;;;;16.40;14.82;;;23.20;99.90;;;;;;5016102;28;20029;-67
2021/06/17 01:45:39;;;;;;;18.83;15.32;;;23.20;99.90;;;;;;5019288;28;20037;-68
2021/06/17 01:48:06;;;;;;;15.63;14.15;;;23.10;99.90;;;;;;5026288;28;20026;-67
2021/06/17 01:50:32;;;;;;;18.60;16.52;;;23.10;99.90;;;;;;5019420;28;20029;-67
2021/06/17 01:52:58;;;;;;;16.50;14.82;;;23.10;99.90;;;;;;5015824;28;20429;-68
2021/06/17 01:55:31;;;;;;;17.00;15.40;;;23.00;99.90;;;;;;5024650;28;20045;-68
2021/06/17 01:58:01;;;;;;;20.17;15.38;;;23.00;99.90;;;;;;5021364;28;20105;-68
2021/06/17 02:00:28;;;;;;;18.95;17.02;;;23.00;99.90;;;;;;5022633;28;20056;-67
2021/06/17 02:02:54;;;;;;;19.60;17.60;;;23.00;99.90;;;;;;5015827;28;20033;-67
2021/06/17 02:05:22;;;;;;;18.77;16.52;;;22.90;99.90;;;;;;5019559;28;20025;-67
2021/06/17 02:07:49;;;;;;;18.15;15.98;;;23.00;99.90;;;;;;5020054;28;20113;-67
2021/06/17 02:10:19;;;;;;;21.58;16.63;;;22.90;99.90;;;;;;5019748;28;20105;-67
2021/06/17 02:12:46;;;;;;;18.40;15.10;;;22.90;99.90;;;;;;5021044;28;20037;-67
2021/06/17 02:15:13;;;;;;;17.75;16.05;;;22.90;99.90;;;;;;5016564;28;20092;-67
2021/06/17 02:17:42;;;;;;;18.60;16.10;;;22.90;99.90;;;;;;5019170;28;20025;-68
2021/06/17 02:20:09;;;;;;;18.70;16.67;;;22.90;99.90;;;;;;5016645;28;20117;-67
2021/06/17 02:22:41;;;;;;;21.90;19.83;;;22.80;99.90;;;;;;5018376;28;20024;-68
2021/06/17 02:25:08;;;;;;;20.08;18.20;;;22.70;99.90;;;;;;5017283;28;20490;-68
2021/06/17 02:27:36;;;;;;;19.63;16.00;;;22.60;99.90;;;;;;5017888;28;20034;-67
2021/06/17 02:30:08;;;;;;;20.27;17.17;;;22.60;99.90;;;;;;5015920;28;20030;-67
2021/06/17 02:32:39;;;;;;;18.90;16.93;;;22.60;99.90;;;;;;5014450;28;20156;-68
2021/06/17 02:35:06;;;;;;;20.38;18.27;;;22.60;99.90;;;;;;5016360;28;20030;-68
2021/06/17 02:37:35;;;;;;;18.30;16.33;;;22.60;99.90;;;;;;5018370;28;20076;-67
2021/06/17 02:40:01;;;;;;;23.00;17.67;;;22.60;99.90;;;;;;5017708;28;20075;-68
2021/06/17 02:42:28;;;;;;;20.70;18.52;;;22.60;99.90;;;;;;5015424;28;20026;-68
2021/06/17 02:44:55;;;;;;;20.88;18.08;;;22.50;99.90;;;;;;5020705;28;20045;-68
2021/06/17 02:47:21;;;;;;;21.67;19.55;;;22.50;99.90;;;;;;5016757;28;20076;-68
2021/06/17 02:49:47;;;;;;;21.33;19.27;;;22.60;99.90;;;;;;5014179;28;20029;-68
2021/06/17 02:52:12;;;;;;;21.55;19.23;;;22.50;99.90;;;;;;5017659;28;20045;-68
2021/06/17 02:54:38;;;;;;;22.95;20.40;;;22.50;99.90;;;;;;5020011;28;20029;-67
2021/06/17 02:57:21;;;;;;;22.05;19.88;;;22.50;99.90;;;;;;5016804;28;20054;-68
2021/06/17 02:59:58;;;;;;;28.60;20.77;;;22.50;99.90;;;;;;5016657;28;20036;-67
2021/06/17 03:02:55;;;;;;;22.40;20.08;;;22.50;99.90;;;;;;5016385;28;20037;-69
2021/06/17 03:05:30;;;;;;;21.50;19.27;;;22.50;99.90;;;;;;5016762;28;20026;-68
2021/06/17 03:08:17;;;;;;;22.05;19.77;;;22.50;99.90;;;;;;5018165;28;20021;-67
2021/06/17 03:10:44;;;;;;;18.70;16.90;;;22.40;99.90;;;;;;5020296;28;20482;-68
2021/06/17 03:13:11;;;;;;;20.20;18.27;;;22.40;99.90;;;;;;5029013;28;20029;-67
2021/06/17 03:15:40;;;;;;;23.92;21.05;;;22.40;99.90;;;;;;5020111;28;20025;-68
2021/06/17 03:18:07;;;;;;;25.65;21.00;;;22.40;99.90;;;;;;5016097;28;20036;-68
2021/06/17 03:20:37;;;;;;;24.33;21.55;;;22.40;99.90;;;;;;5014310;28;20379;-67
2021/06/17 03:23:06;;;;;;;22.30;19.52;;;22.40;99.90;;;;;;5017578;28;20048;-67
2021/06/17 03:25:33;;;;;;;24.25;21.48;;;22.40;99.90;;;;;;5015207;28;20026;-67
2021/06/17 03:28:00;;;;;;;26.13;23.55;;;22.30;99.90;;;;;;5022154;28;20029;-67
2021/06/17 03:30:28;;;;;;;23.85;21.52;;;22.30;99.90;;;;;;5014219;28;20117;-67
2021/06/17 03:32:59;;;;;;;26.77;23.05;;;22.30;99.90;;;;;;5019270;28;20076;-68
2021/06/17 03:35:28;;;;;;;21.00;18.90;;;22.30;99.90;;;;;;5018973;28;20034;-68
2021/06/17 03:37:56;;;;;;;22.27;19.92;;;22.30;99.90;;;;;;5015498;28;20026;-68
2021/06/17 03:40:22;;;;;;;20.92;18.70;;;22.30;99.90;;;;;;5010814;28;20030;-68
2021/06/17 03:42:51;;;;;;;22.70;20.35;;;22.30;99.90;;;;;;5016217;28;20411;-68
2021/06/17 03:45:18;;;;;;;22.40;19.73;;;22.40;99.90;;;;;;5019127;28;20495;-67
2021/06/17 03:47:47;;;;;;;20.42;18.30;;;22.40;99.90;;;;;;5020991;28;20084;-67
2021/06/17 03:50:14;;;;;;;20.10;18.08;;;22.30;99.90;;;;;;5019918;28;20033;-68
2021/06/17 03:52:46;;;;;;;20.55;18.42;;;22.30;99.90;;;;;;5019076;28;20084;-67
2021/06/17 03:55:14;;;;;;;22.25;19.60;;;22.30;99.90;;;;;;5018956;28;20060;-67
2021/06/17 03:57:41;;;;;;;22.52;19.67;;;22.20;99.90;;;;;;5021077;28;20030;-67
2021/06/17 04:00:08;;;;;;;22.73;20.50;;;22.30;99.90;;;;;;5019912;28;20021;-67
2021/06/17 04:02:33;;;;;;;21.48;18.65;;;22.30;99.90;;;;;;5017250;28;20476;-67
2021/06/17 04:05:01;;;;;;;21.40;19.02;;;22.20;99.90;;;;;;5017830;28;20040;-67
2021/06/17 04:07:27;;;;;;;19.95;18.02;;;22.20;99.90;;;;;;5021811;28;20414;-67
2021/06/17 04:09:57;;;;;;;19.77;17.85;;;22.20;99.90;;;;;;5022958;28;20084;-67
2021/06/17 04:12:27;;;;;;;21.08;17.05;;;22.10;99.90;;;;;;5026520;28;20037;-67
2021/06/17 04:14:54;;;;;;;19.25;17.50;;;22.10;99.90;;;;;;5018678;28;20045;-67
2021/06/17 04:17:25;;;;;;;23.10;19.52;;;22.20;99.90;;;;;;5021491;28;20026;-67
2021/06/17 04:19:53;;;;;;;20.35;18.20;;;22.30;99.90;;;;;;5026677;28;20049;-67
2021/06/17 04:22:21;;;;;;;25.70;23.30;;;22.30;99.90;;;;;;5016170;28;20205;-67
2021/06/17 04:24:51;;;;;;;23.48;19.52;;;22.30;99.90;;;;;;5024532;28;20021;-67
2021/06/17 04:27:20;;;;;;;21.70;19.60;;;22.30;99.90;;;;;;5020268;28;20021;-68
2021/06/17 04:29:48;;;;;;;20.77;18.63;;;22.30;99.90;;;;;;5022193;28;20030;-68
2021/06/17 04:32:14;;;;;;;22.35;19.52;;;22.30;99.90;;;;;;5020473;28;20033;-68
2021/06/17 04:34:41;;;;;;;22.48;20.15;;;22.30;99.90;;;;;;5020318;28;20429;-68
2021/06/17 04:37:13;;;;;;;18.25;16.30;;;22.40;99.90;;;;;;5020250;28;20038;-68
2021/06/17 04:39:40;;;;;;;20.02;18.10;;;22.30;99.90;;;;;;5017908;28;20022;-67
2021/06/17 04:42:07;;;;;;;18.25;16.65;;;22.30;99.90;;;;;;5024630;28;20113;-68
2021/06/17 04:44:38;;;;;;;21.10;18.85;;;22.30;99.90;;;;;;5023153;28;20485;-68
2021/06/17 04:47:05;;;;;;;21.38;19.13;;;22.20;99.90;;;;;;5019888;28;20034;-67
2021/06/17 04:49:34;;;;;;;19.35;17.25;;;22.20;99.90;;;;;;5020422;28;20064;-68
2021/06/17 04:52:03;;;;;;;21.25;19.17;;;22.20;99.90;;;;;;5017594;28;20193;-67
2021/06/17 04:54:28;;;;;;;19.23;17.23;;;22.20;99.90;;;;;;5018238;28;20104;-67
2021/06/17 04:56:55;;;;;;;17.30;15.73;;;22.20;99.90;;;;;;5017653;28;20089;-71
2021/06/17 04:59:20;;;;;;;18.23;16.40;;;22.20;99.90;;;;;;5021138;28;20018;-71
2021/06/17 05:01:46;;;;;;;18.85;17.08;;;22.10;99.90;;;;;;5017434;28;20033;-72
2021/06/17 05:04:11;;;;;;;19.58;17.63;;;22.20;99.90;;;;;;5015523;28;20022;-70
2021/06/17 05:06:40;;;;;;;18.48;16.65;;;22.30;99.90;;;;;;5021294;28;20024;-72
2021/06/17 05:11:52;;;;;;;19.45;17.33;;;22.30;99.90;;;;;;5020786;28;20537;-72
2021/06/17 05:14:21;;;;;;;15.40;13.95;;;22.30;99.90;;;;;;5021824;28;20101;-72
2021/06/17 05:16:47;;;;;;;18.13;16.25;;;22.30;99.90;;;;;;5018162;28;20030;-70
2021/06/17 05:19:15;;;;;;;17.50;15.57;;;22.40;99.90;;;;;;5016973;28;20048;-71
2021/06/17 05:21:42;;;;;;;15.90;14.30;;;22.30;99.90;;;;;;5017444;28;20528;-71
2021/06/17 05:24:08;;;;;;;16.83;15.13;;;22.30;99.90;;;;;;5020547;28;20076;-71
2021/06/17 05:26:35;;;;;;;16.20;13.70;;;22.30;99.90;;;;;;5018743;28;20026;-71
2021/06/17 05:29:00;;;;;;;16.55;14.95;;;22.40;99.90;;;;;;5016627;28;20045;-72
2021/06/17 05:31:26;;;;;;;15.27;13.68;;;22.30;99.90;;;;;;5021502;28;20064;-70
2021/06/17 05:33:52;;;;;;;17.65;15.88;;;22.30;99.90;;;;;;5020690;28;20029;-71
2021/06/17 05:36:18;;;;;;;14.93;13.40;;;22.40;99.90;;;;;;5015976;28;20080;-72
2021/06/17 05:38:44;;;;;;;15.95;14.35;;;22.40;99.90;;;;;;5016911;28;20509;-72
2021/06/17 05:41:10;;;;;;;15.60;13.40;;;22.50;99.90;;;;;;5017393;28;20105;-71
2021/06/17 05:43:36;;;;;;;15.50;13.93;;;22.50;99.90;;;;;;5018628;28;20413;-71
2021/06/17 05:46:02;;;;;;;16.13;13.15;;;22.40;99.90;;;;;;5014889;28;20446;-72
2021/06/17 05:48:29;;;;;;;18.13;14.75;;;22.50;99.90;;;;;;5017238;28;20057;-72
2021/06/17 05:50:56;;;;;;;15.57;13.70;;;22.50;99.90;;;;;;5018155;28;20489;-71
2021/06/17 05:53:21;;;;;;;19.98;16.17;;;22.60;99.90;;;;;;5016347;28;20569;-71
2021/06/17 05:55:47;;;;;;;13.77;12.38;;;22.60;99.90;;;;;;5018648;28;20021;-71
2021/06/17 05:58:13;;;;;;;14.80;12.68;;;22.60;99.90;;;;;;5015027;28;20109;-70
2021/06/17 06:00:39;;;;;;;15.65;13.55;;;22.60;99.90;;;;;;5017036;28;20030;-72
2021/06/17 06:03:06;;;;;;;13.45;12.07;;;22.70;99.90;;;;;;4999696;28;20040;-71
2021/06/17 06:05:32;;;;;;;17.27;13.68;;;22.70;99.90;;;;;;5016354;28;20028;-72
2021/06/17 06:08:03;;;;;;;17.77;15.88;;;22.80;99.90;;;;;;5018435;28;20121;-72
2021/06/17 06:10:29;;;;;;;16.33;13.25;;;22.90;99.90;;;;;;5018989;28;20065;-68
2021/06/17 06:12:55;;;;;;;13.23;11.93;;;22.90;99.90;;;;;;5015503;28;20144;-67
2021/06/17 06:15:22;;;;;;;17.33;12.80;;;23.00;99.90;;;;;;5018904;28;20547;-67
2021/06/17 06:17:48;;;;;;;13.98;12.43;;;23.10;99.90;;;;;;5022403;28;20026;-67
2021/06/17 06:20:15;;;;;;;20.65;13.27;;;23.20;99.90;;;;;;5012401;28;20383;-67
2021/06/17 06:22:42;;;;;;;14.68;13.15;;;23.30;99.90;;;;;;5015754;28;20029;-67
2021/06/17 06:25:08;;;;;;;13.10;11.68;;;23.30;99.90;;;;;;5021844;28;20028;-67
2021/06/17 06:27:34;;;;;;;12.43;9.90;;;23.50;99.90;;;;;;5017344;28;20105;-67
2021/06/17 06:30:03;;;;;;;12.68;11.40;;;23.60;99.90;;;;;;5016056;28;20357;-67
2021/06/17 06:32:29;;;;;;;13.50;11.57;;;23.70;99.90;;;;;;5014442;28;20033;-67
2021/06/17 06:34:57;;;;;;;11.50;10.40;;;23.80;99.90;;;;;;5010852;28;20079;-67
2021/06/17 06:37:23;;;;;;;14.23;10.18;;;23.90;99.90;;;;;;5014921;28;20034;-67
2021/06/17 06:39:49;;;;;;;14.93;10.80;;;24.00;99.90;;;;;;5015968;28;20030;-68
2021/06/17 06:42:14;;;;;;;13.25;9.85;;;24.10;99.90;;;;;;5013381;28;20509;-68
2021/06/17 06:44:40;;;;;;;10.95;9.70;;;24.30;99.90;;;;;;5016450;28;20406;-67
2021/06/17 06:47:05;;;;;;;13.68;9.75;;;24.50;99.90;;;;;;5016598;28;20057;-67
2021/06/17 06:49:31;;;;;;;8.38;7.55;;;24.60;99.90;;;;;;5022046;28;20022;-68
2021/06/17 06:51:56;;;;;;;13.27;8.30;;;24.80;99.90;;;;;;5018059;28;20061;-68
2021/06/17 06:54:22;;;;;;;11.52;7.43;;;24.90;99.90;;;;;;5013604;28;20045;-70
2021/06/17 06:56:48;;;;;;;10.63;6.32;;;24.90;99.90;;;;;;5016789;28;20585;-70
2021/06/17 06:59:13;;;;;;;9.65;6.22;;;25.00;99.90;;;;;;5013953;28;20097;-70
2021/06/17 07:01:39;;;;;;;11.75;4.95;;;25.00;99.90;;;;;;5014495;28;20100;-70
2021/06/17 07:04:05;;;;;;;10.25;4.78;;;25.10;99.90;;;;;;5020837;28;20481;-70
2021/06/17 07:06:32;;;;;;;7.15;4.40;;;25.30;99.90;;;;;;5011955;28;20026;-70
2021/06/17 07:08:58;;;;;;;6.43;3.95;;;25.30;99.70;;;;;;5015267;28;20032;-70
2021/06/17 07:11:23;;;;;;;6.47;4.25;;;25.50;99.70;;;;;;5004521;28;20022;-72
2021/06/17 07:13:49;;;;;;;5.03;4.30;;;25.60;99.90;;;;;;5010733;28;20061;-70
2021/06/17 07:16:15;;;;;;;5.03;3.83;;;25.70;99.90;;;;;;5017176;28;20463;-70
2021/06/17 07:18:40;;;;;;;5.80;4.10;;;25.90;99.90;;;;;;5012344;28;20025;-70
2021/06/17 07:21:07;;;;;;;5.40;3.55;;;26.10;98.60;;;;;;5016072;28;20325;-70
2021/06/17 07:23:34;;;;;;;4.78;3.80;;;26.20;99.50;;;;;;5017913;28;20032;-70
2021/06/17 07:26:00;;;;;;;8.05;3.60;;;26.20;98.90;;;;;;5016832;28;20032;-70
2021/06/17 07:28:27;;;;;;;7.85;4.47;;;26.40;98.70;;;;;;5012694;28;20462;-70
2021/06/17 07:30:53;;;;;;;5.35;4.05;;;26.50;98.70;;;;;;5015919;28;20034;-70
2021/06/17 07:33:18;;;;;;;7.53;4.25;;;26.50;98.40;;;;;;5011310;28;20386;-70
2021/06/17 07:35:44;;;;;;;4.57;3.80;;;26.60;98.80;;;;;;5013257;28;20045;-70
2021/06/17 07:38:10;;;;;;;5.53;4.10;;;26.70;98.70;;;;;;5014609;28;20120;-71
2021/06/17 07:40:40;;;;;;;9.70;3.75;;;26.80;98.60;;;;;;5015295;28;20049;-70
2021/06/17 07:43:07;;;;;;;9.63;3.83;;;26.90;98.00;;;;;;5020111;28;20529;-70
2021/06/17 07:45:33;;;;;;;7.13;3.58;;;27.10;97.20;;;;;;5013780;28;20037;-71
2021/06/17 07:47:59;;;;;;;7.38;4.03;;;27.20;97.10;;;;;;5016660;28;20048;-70
2021/06/17 07:50:24;;;;;;;5.75;3.55;;;27.40;96.70;;;;;;5012069;28;20478;-70
2021/06/17 07:52:50;;;;;;;5.47;4.00;;;27.50;97.10;;;;;;5014792;28;20558;-69
2021/06/17 07:55:16;;;;;;;7.70;4.32;;;27.60;95.90;;;;;;5016937;28;20108;-70
2021/06/17 07:57:42;;;;;;;5.43;3.55;;;27.70;96.00;;;;;;5017311;28;20030;-70
2021/06/17 08:00:08;;;;;;;5.88;3.50;;;27.80;96.20;;;;;;5012063;28;20018;-69
2021/06/17 08:02:34;;;;;;;8.77;3.45;;;27.90;96.30;;;;;;5011502;28;20018;-71
2021/06/17 08:04:59;;;;;;;3.67;3.22;;;27.90;96.30;;;;;;5014917;28;20080;-71
2021/06/17 08:07:25;;;;;;;9.35;3.92;;;28.00;96.60;;;;;;5014700;28;20498;-70
2021/06/17 08:09:51;;;;;;;7.05;3.67;;;28.00;96.40;;;;;;5015186;28;20463;-71
2021/06/17 08:12:17;;;;;;;8.88;4.20;;;28.10;95.90;;;;;;5012038;28;20437;-71
2021/06/17 08:14:43;;;;;;;7.63;3.53;;;28.20;96.40;;;;;;5011509;28;20068;-71
2021/06/17 08:17:08;;;;;;;7.45;3.83;;;28.40;96.50;;;;;;5017975;28;20018;-70
2021/06/17 08:19:34;;;;;;;7.50;3.83;;;28.50;95.50;;;;;;5010314;28;20022;-70
2021/06/17 08:22:04;;;;;;;6.25;3.72;;;28.60;95.10;;;;;;5016508;28;20072;-70
2021/06/17 08:24:30;;;;;;;8.23;4.00;;;28.60;95.00;;;;;;5013186;28;20949;-70
2021/06/17 08:26:56;;;;;;;8.65;3.80;;;28.40;96.10;;;;;;5015599;28;20030;-70
2021/06/17 08:29:22;;;;;;;6.30;3.83;;;28.30;98.50;;;;;;5011262;28;20030;-70
2021/06/17 08:31:49;;;;;;;9.85;4.43;;;28.30;98.50;;;;;;5015817;28;20038;-71
2021/06/17 08:34:14;;;;;;;6.35;3.65;;;28.30;97.30;;;;;;5017042;28;20025;-71
2021/06/17 08:36:40;;;;;;;5.78;4.10;;;28.40;99.60;;;;;;5020066;28;20503;-71
2021/06/17 08:39:06;;;;;;;7.88;4.20;;;28.50;99.70;;;;;;5017794;28;20026;-70
2021/06/17 08:41:32;;;;;;;6.97;3.78;;;28.70;96.70;;;;;;5020888;28;20042;-71
2021/06/17 08:43:58;;;;;;;4.55;3.65;;;28.70;96.30;;;;;;5017928;28;20045;-71
2021/06/17 08:46:24;;;;;;;6.00;4.10;;;28.90;95.60;;;;;;5017440;28;20033;-70
2021/06/17 08:48:50;;;;;;;6.35;3.85;;;28.90;95.30;;;;;;5017695;28;20371;-70
2021/06/17 08:51:17;;;;;;;9.07;4.25;;;28.80;96.40;;;;;;5017847;28;20144;-68
2021/06/17 08:53:43;;;;;;;7.78;4.10;;;28.90;95.90;;;;;;5012718;28;20498;-69
2021/06/17 08:56:09;;;;;;;8.00;3.83;;;28.80;96.00;;;;;;5015147;28;20029;-67
2021/06/17 08:58:34;;;;;;;7.65;4.25;;;29.00;96.90;;;;;;5016412;28;20473;-71
2021/06/17 09:01:10;;;;;;;6.13;4.50;;;28.90;96.40;;;;;;5017573;28;20017;-68
2021/06/17 09:03:39;;;;;;;6.22;3.95;;;28.90;96.70;;;;;;5017259;28;20025;-70
2021/06/17 09:06:06;;;;;;;6.38;4.10;;;28.70;95.70;;;;;;5017972;28;20061;-70
2021/06/17 09:08:33;;;;;;;7.22;3.42;;;28.80;97.50;;;;;;5018378;28;20025;-67
2021/06/17 09:10:59;;;;;;;7.43;4.70;;;28.70;96.10;;;;;;5016195;28;20036;-67
2021/06/17 09:13:34;;;;;;;5.93;4.05;;;28.60;96.80;;;;;;5016380;28;20037;-67
2021/06/17 09:16:01;;;;;;;4.35;3.95;;;28.60;95.20;;;;;;5016775;28;20041;-70
2021/06/17 09:18:28;;;;;;;5.72;4.10;;;28.70;96.20;;;;;;5015240;28;20134;-71
2021/06/17 09:21:06;;;;;;;6.18;3.80;;;28.70;97.50;;;;;;5018817;28;20022;-70
2021/06/17 09:23:39;;;;;;;6.63;3.70;;;28.70;96.90;;;;;;5019441;28;20032;-70
2021/06/17 09:26:10;;;;;;;6.88;3.88;;;28.80;96.80;;;;;;5018302;28;20486;-70
2021/06/17 09:28:46;;;;;;;9.95;4.05;;;28.80;98.90;;;;;;5020230;28;20033;-69
2021/06/17 09:31:17;;;;;;;7.15;4.32;;;28.80;96.10;;;;;;5014548;28;20034;-68
2021/06/17 09:33:44;;;;;;;8.63;4.22;;;28.90;97.20;;;;;;5012636;28;20072;-68
2021/06/17 09:36:10;;;;;;;6.20;3.80;;;29.10;95.80;;;;;;5017490;28;20066;-70
2021/06/17 09:38:49;;;;;;;8.90;4.18;;;29.00;96.20;;;;;;5016840;28;20050;-68
2021/06/17 09:41:41;;;;;;;8.15;3.92;;;29.10;97.80;;;;;;5016216;28;20534;-68
2021/06/17 09:44:30;;;;;;;8.45;4.40;;;29.20;96.50;;;;;;5017599;28;20037;-68
2021/06/17 09:47:11;;;;;;;9.85;3.97;;;29.20;96.00;;;;;;5013487;28;20509;-68
2021/06/17 09:49:38;;;;;;;5.13;4.00;;;29.20;95.10;;;;;;5015169;28;20034;-68
2021/06/17 09:52:05;;;;;;;7.07;3.80;;;29.30;96.90;;;;;;5019236;28;20037;-68
2021/06/17 09:54:35;;;;;;;8.65;4.32;;;29.10;96.00;;;;;;5015679;28;20021;-69
2021/06/17 09:57:05;;;;;;;8.30;4.10;;;29.10;96.30;;;;;;5016336;28;20068;-69
2021/06/17 09:59:37;;;;;;;10.10;4.30;;;29.10;95.20;;;;;;5014335;28;20030;-68
2021/06/17 10:02:05;;;;;;;6.65;3.92;;;29.10;96.30;;;;;;5013222;28;20108;-71
2021/06/17 10:04:31;;;;;;;7.10;3.75;;;29.10;97.90;;;;;;5016271;28;20053;-68
2021/06/17 10:06:57;;;;;;;8.65;3.65;;;29.20;95.70;;;;;;5016782;28;20423;-68
2021/06/17 10:09:23;;;;;;;10.52;3.75;;;29.20;95.50;;;;;;5013978;28;20108;-69
2021/06/17 10:11:50;;;;;;;9.82;3.92;;;29.20;96.40;;;;;;5012321;28;20037;-68
2021/06/17 10:14:16;;;;;;;11.95;4.00;;;29.20;95.80;;;;;;5015578;28;20034;-68
2021/06/17 10:16:43;;;;;;;5.55;3.42;;;29.30;95.00;;;;;;5013190;28;20133;-68
2021/06/17 10:19:10;;;;;;;9.00;3.70;;;29.40;95.60;;;;;;5012581;28;20037;-68
2021/06/17 10:21:36;;;;;;;7.88;4.22;;;29.40;97.00;;;;;;5018972;28;20041;-68
2021/06/17 10:24:04;;;;;;;12.85;4.00;;;29.40;96.40;;;;;;5014948;28;20030;-69
2021/06/17 10:26:40;;;;;;;3.97;3.50;;;29.40;95.70;;;;;;5018711;28;20419;-68
2021/06/17 10:29:06;;;;;;;3.47;3.17;;;29.40;95.90;;;;;;5013951;28;20060;-68
2021/06/17 10:31:41;;;;;;;5.68;3.53;;;29.40;96.10;;;;;;5014537;28;20469;-68
2021/06/17 10:34:38;;;;;;;9.85;4.20;;;29.50;96.20;;;;;;5014758;28;20026;-68
2021/06/17 10:37:22;;;;;;;8.25;3.97;;;29.70;95.80;;;;;;5005726;28;20038;-67
2021/06/17 10:39:48;;;;;;;4.97;3.80;;;29.80;96.60;;;;;;5020612;28;20137;-67
2021/06/17 10:42:19;;;;;;;4.18;3.78;;;29.90;95.90;;;;;;5014087;28;21574;-68
2021/06/17 10:44:56;;;;;;;5.93;3.85;;;30.30;96.20;;;;;;5017148;28;20030;-68
2021/06/17 10:50:14;;;;;;;6.30;4.78;;;31.00;94.80;;;;;;5015056;28;20508;-67
2021/06/17 10:52:42;;;;;;;10.10;4.88;;;31.30;94.40;;;;;;5014626;28;20132;-69
2021/06/17 10:55:12;;;;;;;7.53;4.10;;;31.50;93.30;;;;;;5013486;28;20033;-68
2021/06/17 10:57:44;;;;;;;4.47;3.50;;;31.60;91.60;;;;;;5012213;28;20021;-69
2021/06/17 11:00:23;;;;;;;;;;;31.80;92.00;;;;;;5013501;28;20026;-69
2021/06/17 11:02:55;;;;;;;9.07;3.03;;;31.90;90.40;;;;;;5011439;28;19923;-70
2021/06/17 11:05:48;;;;;;;;;;;31.90;90.50;;;;;;5014327;28;20026;-68
2021/06/17 11:10:52;;;;;;;5.05;3.28;;;32.30;90.40;;;;;;5011277;28;20034;-70
2021/06/17 11:13:38;;;;;;;6.30;2.80;;;32.30;87.70;;;;;;5009788;28;20387;-67
2021/06/17 11:16:24;;;;;;;6.13;3.08;;;32.70;89.80;;;;;;5013684;28;20057;-68
2021/06/17 11:19:00;;;;;;;3.83;2.90;;;32.80;90.40;;;;;;5004967;28;20042;-68
2021/06/17 11:21:27;;;;;;;6.88;3.17;;;32.80;91.00;;;;;;5009373;28;20029;-67
2021/06/17 11:24:08;;;;;;;8.82;2.85;;;32.60;90.20;;;;;;5015670;28;20497;-67
2021/06/17 11:26:48;;;;;;;7.05;2.83;;;32.50;89.00;;;;;;5013431;28;20348;-67
2021/06/17 11:29:20;;;;;;;8.25;2.72;;;32.30;90.50;;;;;;5015100;28;20037;-67
2021/06/17 11:31:50;;;;;;;7.00;3.60;;;32.10;90.50;;;;;;5008776;28;20054;-67
2021/06/17 11:34:37;;;;;;;7.70;3.05;;;32.10;89.30;;;;;;5012625;28;20033;-67
2021/06/17 11:37:14;;;;;;;5.28;2.67;;;32.30;89.30;;;;;;5014477;28;20025;-68
2021/06/17 11:39:40;;;;;;;2.85;2.50;;;32.50;87.40;;;;;;5021785;28;20048;-68
2021/06/17 11:42:11;;;;;;;5.75;2.58;;;32.60;87.60;;;;;;5021683;28;20085;-68
2021/06/17 11:44:37;;;;;;;4.55;2.75;;;32.50;88.20;;;;;;5013298;28;20033;-67
2021/06/17 11:47:11;;;;;;;3.97;2.60;;;32.70;87.50;;;;;;5024520;28;20113;-68
2021/06/17 11:49:44;;;;;;;7.95;2.78;;;32.90;89.40;;;;;;5016396;28;20053;-69
2021/06/17 11:52:19;;;;;;;5.75;2.85;;;33.20;87.30;;;;;;5008760;28;20034;-68
2021/06/17 11:54:46;;;;;;;4.47;3.33;;;33.50;90.00;;;;;;5009254;28;20052;-67
2021/06/17 11:57:14;;;;;;;5.85;2.78;;;33.00;86.80;;;;;;5013608;28;20083;-68
2021/06/17 11:59:50;;;;;;;4.85;2.20;;;33.10;87.40;;;;;;5008884;28;20029;-68
2021/06/17 12:02:23;;;;;;;7.75;2.85;;;33.00;88.30;;;;;;5011311;28;20117;-69
2021/06/17 12:04:54;;;;;;;5.53;2.40;;;33.10;86.80;;;;;;5013409;28;20026;-68
2021/06/17 12:07:33;;;;;;;6.50;2.93;;;33.20;85.80;;;;;;5017721;28;20032;-67
2021/06/17 12:10:15;;;;;;;6.38;2.88;;;33.20;85.50;;;;;;5018833;28;20661;-68
2021/06/17 12:12:46;;;;;;;7.30;2.97;;;33.20;86.20;;;;;;5017860;28;20026;-69
2021/06/17 12:15:20;;;;;;;7.68;3.08;;;33.50;88.00;;;;;;5019259;28;20484;-68
2021/06/17 12:17:48;;;;;;;6.60;2.72;;;33.70;85.10;;;;;;5019882;28;20066;-67
2021/06/17 12:20:24;;;;;;;5.35;2.80;;;33.70;84.60;;;;;;5019246;28;20049;-67
2021/06/17 12:23:15;;;;;;;8.43;2.83;;;33.70;84.30;;;;;;5019128;28;20030;-69
2021/06/17 12:25:47;;;;;;;5.15;2.90;;;33.80;84.00;;;;;;5018770;28;20024;-68
2021/06/17 12:28:15;;;;;;;5.22;2.08;;;33.90;85.20;;;;;;5019216;28;20030;-70
2021/06/17 12:30:41;;;;;;;4.97;2.20;;;33.90;82.20;;;;;;5014129;28;20486;-68
2021/06/17 12:33:12;;;;;;;3.65;2.28;;;34.00;82.50;;;;;;5018505;28;20045;-72
2021/06/17 12:36:03;;;;;;;6.35;2.00;;;34.10;80.50;;;;;;5013708;28;20026;-72
2021/06/17 12:38:30;;;;;;;3.45;1.80;;;34.10;82.30;;;;;;5004626;28;20048;-72
2021/06/17 12:41:10;;;;;;;8.27;2.08;;;34.00;79.30;;;;;;4999157;28;20177;-72
2021/06/17 12:43:50;;;;;;;4.70;1.92;;;34.10;80.20;;;;;;5003437;28;20034;-69
2021/06/17 12:46:27;;;;;;;5.88;1.77;;;33.90;78.90;;;;;;5004952;28;20041;-71
2021/06/17 12:49:13;;;;;;;5.32;1.90;;;34.00;79.20;;;;;;5002438;28;20021;-68
2021/06/17 12:54:42;;;;;;;8.73;2.00;;;34.10;80.00;;;;;;5001868;28;20080;-68
2021/06/17 12:57:10;;;;;;;6.57;2.22;;;34.30;79.70;;;;;;5002141;28;20125;-71